sensor_id;sensor_type;location;lat;lon;timestamp;temperature;humidity
17080;DHT22;8655;57.106;-2.088;2022-07-29T00:01:43;21.80;62.10
17080;DHT22;8655;57.106;-2.088;2022-07-29T00:04:09;21.80;62.20
17080;DHT22;8655;57.106;-2.088;2022-07-29T00:06:34;21.70;62.00
17080;DHT22;8655;57.106;-2.088;2022-07-29T00:09:00;21.70;62.00
17080;DHT22;8655;57.106;-2.088;2022-07-29T00:11:26;21.80;62.10
17080;DHT22;8655;57.106;-2.088;2022-07-29T00:13:51;21.70;62.10
17080;DHT22;8655;57.106;-2.088;2022-07-29T00:16:17;21.70;62.00
17080;DHT22;8655;57.106;-2.088;2022-07-29T00:18:43;21.70;62.10
17080;DHT22;8655;57.106;-2.088;2022-07-29T00:21:08;21.80;62.20
17080;DHT22;8655;57.106;-2.088;2022-07-29T00:23:34;21.70;62.10
17080;DHT22;8655;57.106;-2.088;2022-07-29T00:26:00;21.70;62.00
17080;DHT22;8655;57.106;-2.088;2022-07-29T00:28:26;21.70;62.10
17080;DHT22;8655;57.106;-2.088;2022-07-29T00:30:52;21.70;62.10
17080;DHT22;8655;57.106;-2.088;2022-07-29T00:33:17;21.70;62.10
17080;DHT22;8655;57.106;-2.088;2022-07-29T00:35:43;21.70;62.10
17080;DHT22;8655;57.106;-2.088;2022-07-29T00:38:13;21.70;62.10
17080;DHT22;8655;57.106;-2.088;2022-07-29T00:40:40;21.70;62.10
17080;DHT22;8655;57.106;-2.088;2022-07-29T00:43:06;21.70;62.10
17080;DHT22;8655;57.106;-2.088;2022-07-29T00:45:32;21.70;62.10
17080;DHT22;8655;57.106;-2.088;2022-07-29T00:47:58;21.70;62.10
17080;DHT22;8655;57.106;-2.088;2022-07-29T00:50:24;21.70;62.10
17080;DHT22;8655;57.106;-2.088;2022-07-29T00:52:50;21.70;62.10
17080;DHT22;8655;57.106;-2.088;2022-07-29T00:55:17;21.70;62.20
17080;DHT22;8655;57.106;-2.088;2022-07-29T00:57:44;21.70;62.20
17080;DHT22;8655;57.106;-2.088;2022-07-29T01:00:14;21.70;62.10
17080;DHT22;8655;57.106;-2.088;2022-07-29T01:02:40;21.70;62.10
17080;DHT22;8655;57.106;-2.088;2022-07-29T01:05:07;21.70;62.10
17080;DHT22;8655;57.106;-2.088;2022-07-29T01:07:34;21.70;62.10
17080;DHT22;8655;57.106;-2.088;2022-07-29T01:10:04;21.70;62.10
17080;DHT22;8655;57.106;-2.088;2022-07-29T01:12:32;21.70;62.10
17080;DHT22;8655;57.106;-2.088;2022-07-29T01:15:04;21.70;62.20
17080;DHT22;8655;57.106;-2.088;2022-07-29T01:28:51;21.70;62.10
17080;DHT22;8655;57.106;-2.088;2022-07-29T01:31:51;21.70;62.10
17080;DHT22;8655;57.106;-2.088;2022-07-29T01:34:27;21.70;62.20
17080;DHT22;8655;57.106;-2.088;2022-07-29T01:39:36;21.70;62.20
17080;DHT22;8655;57.106;-2.088;2022-07-29T01:45:08;21.70;62.20
17080;DHT22;8655;57.106;-2.088;2022-07-29T01:47:57;21.70;62.20
17080;DHT22;8655;57.106;-2.088;2022-07-29T01:50:33;21.70;62.20
17080;DHT22;8655;57.106;-2.088;2022-07-29T01:53:05;21.70;62.20
17080;DHT22;8655;57.106;-2.088;2022-07-29T01:55:35;21.70;62.20
17080;DHT22;8655;57.106;-2.088;2022-07-29T01:58:04;21.70;62.20
17080;DHT22;8655;57.106;-2.088;2022-07-29T02:00:32;21.70;62.20
17080;DHT22;8655;57.106;-2.088;2022-07-29T02:03:02;21.60;62.10
17080;DHT22;8655;57.106;-2.088;2022-07-29T02:05:30;21.60;62.10
17080;DHT22;8655;57.106;-2.088;2022-07-29T02:07:58;21.70;62.20
17080;DHT22;8655;57.106;-2.088;2022-07-29T02:10:27;21.70;62.20
17080;DHT22;8655;57.106;-2.088;2022-07-29T02:12:54;21.60;62.10
17080;DHT22;8655;57.106;-2.088;2022-07-29T02:15:26;21.70;62.20
17080;DHT22;8655;57.106;-2.088;2022-07-29T02:18:00;21.60;62.00
17080;DHT22;8655;57.106;-2.088;2022-07-29T02:20:28;21.60;62.00
17080;DHT22;8655;57.106;-2.088;2022-07-29T02:22:55;21.70;62.20
17080;DHT22;8655;57.106;-2.088;2022-07-29T02:25:23;21.70;62.20
17080;DHT22;8655;57.106;-2.088;2022-07-29T02:27:50;21.60;62.10
17080;DHT22;8655;57.106;-2.088;2022-07-29T02:30:18;21.60;62.10
17080;DHT22;8655;57.106;-2.088;2022-07-29T02:32:45;21.60;62.10
17080;DHT22;8655;57.106;-2.088;2022-07-29T02:35:13;21.60;62.00
17080;DHT22;8655;57.106;-2.088;2022-07-29T02:37:40;21.70;62.20
17080;DHT22;8655;57.106;-2.088;2022-07-29T02:40:09;21.60;62.10
17080;DHT22;8655;57.106;-2.088;2022-07-29T02:42:37;21.60;62.10
17080;DHT22;8655;57.106;-2.088;2022-07-29T02:45:05;21.60;62.00
17080;DHT22;8655;57.106;-2.088;2022-07-29T02:47:37;21.60;62.10
17080;DHT22;8655;57.106;-2.088;2022-07-29T02:50:12;21.60;62.00
17080;DHT22;8655;57.106;-2.088;2022-07-29T02:55:46;21.60;62.70
17080;DHT22;8655;57.106;-2.088;2022-07-29T02:58:34;21.60;62.00
17080;DHT22;8655;57.106;-2.088;2022-07-29T03:01:08;21.60;62.00
17080;DHT22;8655;57.106;-2.088;2022-07-29T03:03:37;21.60;62.00
17080;DHT22;8655;57.106;-2.088;2022-07-29T03:06:04;21.60;62.00
17080;DHT22;8655;57.106;-2.088;2022-07-29T03:08:31;21.60;62.10
17080;DHT22;8655;57.106;-2.088;2022-07-29T03:10:58;21.60;62.10
17080;DHT22;8655;57.106;-2.088;2022-07-29T03:13:24;21.60;62.10
17080;DHT22;8655;57.106;-2.088;2022-07-29T03:15:50;21.60;62.10
17080;DHT22;8655;57.106;-2.088;2022-07-29T03:18:16;21.60;62.10
17080;DHT22;8655;57.106;-2.088;2022-07-29T03:20:43;21.60;62.10
17080;DHT22;8655;57.106;-2.088;2022-07-29T03:23:09;21.60;62.10
17080;DHT22;8655;57.106;-2.088;2022-07-29T03:25:34;21.60;62.10
17080;DHT22;8655;57.106;-2.088;2022-07-29T03:28:00;21.60;62.10
17080;DHT22;8655;57.106;-2.088;2022-07-29T03:30:26;21.60;62.00
17080;DHT22;8655;57.106;-2.088;2022-07-29T03:32:52;21.60;62.00
17080;DHT22;8655;57.106;-2.088;2022-07-29T03:35:19;21.60;62.00
17080;DHT22;8655;57.106;-2.088;2022-07-29T03:37:45;21.60;62.10
17080;DHT22;8655;57.106;-2.088;2022-07-29T03:40:16;21.60;62.00
17080;DHT22;8655;57.106;-2.088;2022-07-29T03:42:43;21.60;62.00
17080;DHT22;8655;57.106;-2.088;2022-07-29T03:45:16;21.60;62.10
17080;DHT22;8655;57.106;-2.088;2022-07-29T03:47:47;21.60;62.00
17080;DHT22;8655;57.106;-2.088;2022-07-29T03:50:14;21.60;62.10
17080;DHT22;8655;57.106;-2.088;2022-07-29T03:52:41;21.60;62.00
17080;DHT22;8655;57.106;-2.088;2022-07-29T03:55:08;21.60;62.00
17080;DHT22;8655;57.106;-2.088;2022-07-29T03:57:35;21.60;62.00
17080;DHT22;8655;57.106;-2.088;2022-07-29T04:00:03;21.60;62.10
17080;DHT22;8655;57.106;-2.088;2022-07-29T04:02:31;21.60;62.00
17080;DHT22;8655;57.106;-2.088;2022-07-29T04:04:57;21.60;62.10
17080;DHT22;8655;57.106;-2.088;2022-07-29T04:07:23;21.60;62.00
17080;DHT22;8655;57.106;-2.088;2022-07-29T04:09:49;21.60;62.00
17080;DHT22;8655;57.106;-2.088;2022-07-29T04:12:14;21.60;62.10
17080;DHT22;8655;57.106;-2.088;2022-07-29T04:14:40;21.50;62.50
17080;DHT22;8655;57.106;-2.088;2022-07-29T04:17:06;21.60;62.10
17080;DHT22;8655;57.106;-2.088;2022-07-29T04:19:32;21.60;62.00
17080;DHT22;8655;57.106;-2.088;2022-07-29T04:21:59;21.50;62.00
17080;DHT22;8655;57.106;-2.088;2022-07-29T04:24:25;21.50;61.90
17080;DHT22;8655;57.106;-2.088;2022-07-29T04:26:51;21.60;62.00
17080;DHT22;8655;57.106;-2.088;2022-07-29T04:29:17;21.50;62.00
17080;DHT22;8655;57.106;-2.088;2022-07-29T04:31:43;21.50;62.00
17080;DHT22;8655;57.106;-2.088;2022-07-29T04:34:09;21.50;61.90
17080;DHT22;8655;57.106;-2.088;2022-07-29T04:36:36;21.50;62.00
17080;DHT22;8655;57.106;-2.088;2022-07-29T04:39:03;21.50;62.20
17080;DHT22;8655;57.106;-2.088;2022-07-29T04:41:28;21.50;62.00
17080;DHT22;8655;57.106;-2.088;2022-07-29T04:43:54;21.50;62.00
17080;DHT22;8655;57.106;-2.088;2022-07-29T04:46:20;21.50;62.00
17080;DHT22;8655;57.106;-2.088;2022-07-29T04:48:46;21.50;62.00
17080;DHT22;8655;57.106;-2.088;2022-07-29T04:51:13;21.50;62.00
17080;DHT22;8655;57.106;-2.088;2022-07-29T04:53:39;21.50;62.00
17080;DHT22;8655;57.106;-2.088;2022-07-29T04:56:05;21.50;62.00
17080;DHT22;8655;57.106;-2.088;2022-07-29T04:58:31;21.50;61.90
17080;DHT22;8655;57.106;-2.088;2022-07-29T05:00:56;21.50;62.00
17080;DHT22;8655;57.106;-2.088;2022-07-29T05:03:22;21.50;62.00
17080;DHT22;8655;57.106;-2.088;2022-07-29T05:05:48;21.50;62.00
17080;DHT22;8655;57.106;-2.088;2022-07-29T05:08:14;21.50;62.00
17080;DHT22;8655;57.106;-2.088;2022-07-29T05:10:39;21.50;62.00
17080;DHT22;8655;57.106;-2.088;2022-07-29T05:13:05;21.50;62.00
17080;DHT22;8655;57.106;-2.088;2022-07-29T05:15:33;21.50;62.00
17080;DHT22;8655;57.106;-2.088;2022-07-29T05:17:59;21.50;62.00
17080;DHT22;8655;57.106;-2.088;2022-07-29T05:20:25;21.50;62.00
17080;DHT22;8655;57.106;-2.088;2022-07-29T05:22:57;21.50;62.00
17080;DHT22;8655;57.106;-2.088;2022-07-29T05:25:24;21.50;62.00
17080;DHT22;8655;57.106;-2.088;2022-07-29T05:27:50;21.50;62.00
17080;DHT22;8655;57.106;-2.088;2022-07-29T05:30:16;21.50;62.70
17080;DHT22;8655;57.106;-2.088;2022-07-29T05:32:42;21.50;62.00
17080;DHT22;8655;57.106;-2.088;2022-07-29T05:35:08;21.50;62.00
17080;DHT22;8655;57.106;-2.088;2022-07-29T05:37:34;21.50;62.00
17080;DHT22;8655;57.106;-2.088;2022-07-29T05:40:01;21.50;62.00
17080;DHT22;8655;57.106;-2.088;2022-07-29T05:42:27;21.50;62.00
17080;DHT22;8655;57.106;-2.088;2022-07-29T05:44:53;21.50;62.00
17080;DHT22;8655;57.106;-2.088;2022-07-29T05:47:19;21.50;62.00
17080;DHT22;8655;57.106;-2.088;2022-07-29T05:49:44;21.50;62.00
17080;DHT22;8655;57.106;-2.088;2022-07-29T05:52:11;21.50;62.00
17080;DHT22;8655;57.106;-2.088;2022-07-29T05:54:38;21.50;62.00
17080;DHT22;8655;57.106;-2.088;2022-07-29T05:57:04;21.50;62.00
17080;DHT22;8655;57.106;-2.088;2022-07-29T05:59:31;21.50;62.00
17080;DHT22;8655;57.106;-2.088;2022-07-29T06:01:57;21.50;62.00
17080;DHT22;8655;57.106;-2.088;2022-07-29T06:04:23;21.50;62.00
17080;DHT22;8655;57.106;-2.088;2022-07-29T06:06:49;21.40;61.90
17080;DHT22;8655;57.106;-2.088;2022-07-29T06:09:14;21.40;61.90
17080;DHT22;8655;57.106;-2.088;2022-07-29T06:11:40;21.50;62.00
17080;DHT22;8655;57.106;-2.088;2022-07-29T06:14:06;21.50;62.00
17080;DHT22;8655;57.106;-2.088;2022-07-29T06:16:32;21.40;61.90
17080;DHT22;8655;57.106;-2.088;2022-07-29T06:18:58;21.50;62.00
17080;DHT22;8655;57.106;-2.088;2022-07-29T06:21:24;21.40;61.90
17080;DHT22;8655;57.106;-2.088;2022-07-29T06:23:49;21.40;61.90
17080;DHT22;8655;57.106;-2.088;2022-07-29T06:26:15;21.40;61.90
17080;DHT22;8655;57.106;-2.088;2022-07-29T06:28:41;21.50;62.00
17080;DHT22;8655;57.106;-2.088;2022-07-29T06:31:07;21.40;61.90
17080;DHT22;8655;57.106;-2.088;2022-07-29T06:33:33;21.50;62.00
17080;DHT22;8655;57.106;-2.088;2022-07-29T06:35:58;21.40;61.90
17080;DHT22;8655;57.106;-2.088;2022-07-29T06:38:25;21.40;61.90
17080;DHT22;8655;57.106;-2.088;2022-07-29T06:40:51;21.40;61.90
17080;DHT22;8655;57.106;-2.088;2022-07-29T06:43:36;21.50;62.00
17080;DHT22;8655;57.106;-2.088;2022-07-29T06:46:10;21.40;61.90
17080;DHT22;8655;57.106;-2.088;2022-07-29T06:48:36;21.40;61.90
17080;DHT22;8655;57.106;-2.088;2022-07-29T06:51:04;21.40;61.90
17080;DHT22;8655;57.106;-2.088;2022-07-29T06:53:30;21.40;61.90
17080;DHT22;8655;57.106;-2.088;2022-07-29T06:55:57;21.40;61.90
17080;DHT22;8655;57.106;-2.088;2022-07-29T06:58:24;21.40;61.90
17080;DHT22;8655;57.106;-2.088;2022-07-29T07:00:51;21.40;62.00
17080;DHT22;8655;57.106;-2.088;2022-07-29T07:03:17;21.40;62.00
17080;DHT22;8655;57.106;-2.088;2022-07-29T07:05:44;21.40;62.00
17080;DHT22;8655;57.106;-2.088;2022-07-29T07:08:10;21.40;61.90
17080;DHT22;8655;57.106;-2.088;2022-07-29T07:10:37;21.40;61.90
17080;DHT22;8655;57.106;-2.088;2022-07-29T07:13:04;21.40;62.00
17080;DHT22;8655;57.106;-2.088;2022-07-29T07:15:30;21.40;61.90
17080;DHT22;8655;57.106;-2.088;2022-07-29T07:17:56;21.40;62.00
17080;DHT22;8655;57.106;-2.088;2022-07-29T07:20:23;21.40;62.00
17080;DHT22;8655;57.106;-2.088;2022-07-29T07:22:49;21.40;62.00
17080;DHT22;8655;57.106;-2.088;2022-07-29T07:25:15;21.40;62.00
17080;DHT22;8655;57.106;-2.088;2022-07-29T07:27:43;21.40;62.00
17080;DHT22;8655;57.106;-2.088;2022-07-29T07:30:09;21.40;62.00
17080;DHT22;8655;57.106;-2.088;2022-07-29T07:32:35;21.40;62.00
17080;DHT22;8655;57.106;-2.088;2022-07-29T07:35:01;21.40;62.00
17080;DHT22;8655;57.106;-2.088;2022-07-29T07:37:27;21.40;62.00
17080;DHT22;8655;57.106;-2.088;2022-07-29T07:39:53;21.40;62.00
17080;DHT22;8655;57.106;-2.088;2022-07-29T07:42:19;21.40;62.00
17080;DHT22;8655;57.106;-2.088;2022-07-29T07:44:45;21.40;62.00
17080;DHT22;8655;57.106;-2.088;2022-07-29T07:47:12;21.40;62.00
17080;DHT22;8655;57.106;-2.088;2022-07-29T07:49:38;21.40;62.00
17080;DHT22;8655;57.106;-2.088;2022-07-29T07:52:04;21.40;62.00
17080;DHT22;8655;57.106;-2.088;2022-07-29T07:54:30;21.40;62.00
17080;DHT22;8655;57.106;-2.088;2022-07-29T07:56:56;21.40;62.00
17080;DHT22;8655;57.106;-2.088;2022-07-29T07:59:22;21.40;62.10
17080;DHT22;8655;57.106;-2.088;2022-07-29T08:01:48;21.40;62.10
17080;DHT22;8655;57.106;-2.088;2022-07-29T08:04:14;21.40;62.10
17080;DHT22;8655;57.106;-2.088;2022-07-29T08:06:40;21.40;62.10
17080;DHT22;8655;57.106;-2.088;2022-07-29T08:09:05;21.40;62.10
17080;DHT22;8655;57.106;-2.088;2022-07-29T08:11:32;21.40;62.10
17080;DHT22;8655;57.106;-2.088;2022-07-29T08:13:58;21.40;62.10
17080;DHT22;8655;57.106;-2.088;2022-07-29T08:16:23;21.40;62.10
17080;DHT22;8655;57.106;-2.088;2022-07-29T08:18:51;21.40;62.10
17080;DHT22;8655;57.106;-2.088;2022-07-29T08:21:17;21.40;62.20
17080;DHT22;8655;57.106;-2.088;2022-07-29T08:23:46;21.40;62.20
17080;DHT22;8655;57.106;-2.088;2022-07-29T08:26:15;21.40;62.20
17080;DHT22;8655;57.106;-2.088;2022-07-29T08:28:42;21.40;62.20
17080;DHT22;8655;57.106;-2.088;2022-07-29T08:31:12;21.40;62.20
17080;DHT22;8655;57.106;-2.088;2022-07-29T08:33:38;21.40;62.20
17080;DHT22;8655;57.106;-2.088;2022-07-29T08:36:05;21.40;62.20
17080;DHT22;8655;57.106;-2.088;2022-07-29T08:38:32;21.40;62.20
17080;DHT22;8655;57.106;-2.088;2022-07-29T08:41:00;21.40;62.20
17080;DHT22;8655;57.106;-2.088;2022-07-29T08:43:27;21.40;62.20
17080;DHT22;8655;57.106;-2.088;2022-07-29T08:45:53;21.40;62.20
17080;DHT22;8655;57.106;-2.088;2022-07-29T08:48:21;21.40;62.20
17080;DHT22;8655;57.106;-2.088;2022-07-29T08:50:48;21.50;62.30
17080;DHT22;8655;57.106;-2.088;2022-07-29T08:53:16;21.50;62.30
17080;DHT22;8655;57.106;-2.088;2022-07-29T08:55:44;21.50;62.30
17080;DHT22;8655;57.106;-2.088;2022-07-29T08:58:10;21.50;62.30
17080;DHT22;8655;57.106;-2.088;2022-07-29T09:00:38;21.50;62.30
17080;DHT22;8655;57.106;-2.088;2022-07-29T09:03:08;21.50;62.30
17080;DHT22;8655;57.106;-2.088;2022-07-29T09:05:34;21.50;62.30
17080;DHT22;8655;57.106;-2.088;2022-07-29T09:08:01;21.50;62.40
17080;DHT22;8655;57.106;-2.088;2022-07-29T09:10:27;21.50;62.40
17080;DHT22;8655;57.106;-2.088;2022-07-29T09:12:57;21.50;62.40
17080;DHT22;8655;57.106;-2.088;2022-07-29T09:15:23;21.50;62.40
17080;DHT22;8655;57.106;-2.088;2022-07-29T09:17:49;21.50;62.50
17080;DHT22;8655;57.106;-2.088;2022-07-29T09:20:17;21.50;62.50
17080;DHT22;8655;57.106;-2.088;2022-07-29T09:22:44;21.50;62.50
17080;DHT22;8655;57.106;-2.088;2022-07-29T09:25:15;21.50;62.50
17080;DHT22;8655;57.106;-2.088;2022-07-29T09:28:09;21.50;62.50
17080;DHT22;8655;57.106;-2.088;2022-07-29T09:30:35;21.50;62.50
17080;DHT22;8655;57.106;-2.088;2022-07-29T09:33:02;21.50;62.50
17080;DHT22;8655;57.106;-2.088;2022-07-29T09:35:29;21.50;62.50
17080;DHT22;8655;57.106;-2.088;2022-07-29T09:37:56;21.60;62.70
17080;DHT22;8655;57.106;-2.088;2022-07-29T09:40:24;21.60;62.70
17080;DHT22;8655;57.106;-2.088;2022-07-29T09:42:51;21.60;62.70
17080;DHT22;8655;57.106;-2.088;2022-07-29T09:45:28;21.60;62.70
17080;DHT22;8655;57.106;-2.088;2022-07-29T09:47:54;21.60;62.70
17080;DHT22;8655;57.106;-2.088;2022-07-29T09:50:22;21.60;62.70
17080;DHT22;8655;57.106;-2.088;2022-07-29T09:52:52;21.60;62.80
17080;DHT22;8655;57.106;-2.088;2022-07-29T09:55:19;21.60;62.80
17080;DHT22;8655;57.106;-2.088;2022-07-29T09:57:45;21.60;62.80
17080;DHT22;8655;57.106;-2.088;2022-07-29T10:00:13;21.60;62.80
17080;DHT22;8655;57.106;-2.088;2022-07-29T10:02:41;21.60;62.80
17080;DHT22;8655;57.106;-2.088;2022-07-29T10:05:23;21.60;62.80
17080;DHT22;8655;57.106;-2.088;2022-07-29T10:07:52;21.60;62.90
17080;DHT22;8655;57.106;-2.088;2022-07-29T10:10:31;21.60;62.90
17080;DHT22;8655;57.106;-2.088;2022-07-29T10:13:04;21.60;63.00
17080;DHT22;8655;57.106;-2.088;2022-07-29T10:15:32;21.70;63.10
17080;DHT22;8655;57.106;-2.088;2022-07-29T10:17:59;21.60;63.00
17080;DHT22;8655;57.106;-2.088;2022-07-29T10:20:26;21.70;63.20
17080;DHT22;8655;57.106;-2.088;2022-07-29T10:22:53;21.70;63.20
17080;DHT22;8655;57.106;-2.088;2022-07-29T10:25:20;21.70;63.20
17080;DHT22;8655;57.106;-2.088;2022-07-29T10:27:46;21.70;63.20
17080;DHT22;8655;57.106;-2.088;2022-07-29T10:30:14;21.70;63.20
17080;DHT22;8655;57.106;-2.088;2022-07-29T10:33:05;21.70;63.30
17080;DHT22;8655;57.106;-2.088;2022-07-29T10:44:05;21.70;63.40
17080;DHT22;8655;57.106;-2.088;2022-07-29T10:46:36;21.70;63.40
17080;DHT22;8655;57.106;-2.088;2022-07-29T10:49:13;21.70;63.40
17080;DHT22;8655;57.106;-2.088;2022-07-29T10:57:32;21.70;63.50
17080;DHT22;8655;57.106;-2.088;2022-07-29T11:05:05;21.80;63.60
17080;DHT22;8655;57.106;-2.088;2022-07-29T11:07:32;21.80;63.70
17080;DHT22;8655;57.106;-2.088;2022-07-29T11:15:17;21.80;63.70
17080;DHT22;8655;57.106;-2.088;2022-07-29T11:20:37;21.80;63.80
17080;DHT22;8655;57.106;-2.088;2022-07-29T11:29:05;21.80;63.80
17080;DHT22;8655;57.106;-2.088;2022-07-29T11:31:46;21.90;63.90
17080;DHT22;8655;57.106;-2.088;2022-07-29T11:34:24;21.90;63.90
17080;DHT22;8655;57.106;-2.088;2022-07-29T11:47:47;21.90;64.00
17080;DHT22;8655;57.106;-2.088;2022-07-29T11:50:36;21.90;64.00
17080;DHT22;8655;57.106;-2.088;2022-07-29T11:53:05;21.90;64.00
17080;DHT22;8655;57.106;-2.088;2022-07-29T11:55:37;21.90;64.00
17080;DHT22;8655;57.106;-2.088;2022-07-29T11:58:03;21.90;64.00
17080;DHT22;8655;57.106;-2.088;2022-07-29T12:00:35;21.90;64.00
17080;DHT22;8655;57.106;-2.088;2022-07-29T12:03:05;21.90;64.10
17080;DHT22;8655;57.106;-2.088;2022-07-29T12:05:43;21.90;64.00
17080;DHT22;8655;57.106;-2.088;2022-07-29T12:08:20;22.00;64.20
17080;DHT22;8655;57.106;-2.088;2022-07-29T12:10:48;22.00;64.20
17080;DHT22;8655;57.106;-2.088;2022-07-29T12:13:16;22.00;64.20
17080;DHT22;8655;57.106;-2.088;2022-07-29T12:15:42;22.00;64.20
17080;DHT22;8655;57.106;-2.088;2022-07-29T12:18:19;22.00;64.20
17080;DHT22;8655;57.106;-2.088;2022-07-29T12:20:47;22.00;64.30
17080;DHT22;8655;57.106;-2.088;2022-07-29T12:23:13;22.00;64.30
17080;DHT22;8655;57.106;-2.088;2022-07-29T12:25:41;22.00;64.20
17080;DHT22;8655;57.106;-2.088;2022-07-29T12:28:11;22.00;64.30
17080;DHT22;8655;57.106;-2.088;2022-07-29T12:30:48;22.00;64.30
17080;DHT22;8655;57.106;-2.088;2022-07-29T12:33:40;22.00;64.30
17080;DHT22;8655;57.106;-2.088;2022-07-29T12:36:06;22.00;64.30
17080;DHT22;8655;57.106;-2.088;2022-07-29T12:38:32;22.10;64.40
17080;DHT22;8655;57.106;-2.088;2022-07-29T12:41:00;22.10;64.40
17080;DHT22;8655;57.106;-2.088;2022-07-29T12:43:26;22.10;64.40
17080;DHT22;8655;57.106;-2.088;2022-07-29T12:45:54;22.10;64.40
17080;DHT22;8655;57.106;-2.088;2022-07-29T12:48:41;22.10;64.50
17080;DHT22;8655;57.106;-2.088;2022-07-29T12:51:08;22.10;64.50
17080;DHT22;8655;57.106;-2.088;2022-07-29T12:53:35;22.10;64.50
17080;DHT22;8655;57.106;-2.088;2022-07-29T12:56:01;22.10;64.50
17080;DHT22;8655;57.106;-2.088;2022-07-29T12:58:41;22.10;64.50
17080;DHT22;8655;57.106;-2.088;2022-07-29T13:01:10;22.10;64.50
17080;DHT22;8655;57.106;-2.088;2022-07-29T13:03:52;22.10;64.50
17080;DHT22;8655;57.106;-2.088;2022-07-29T13:06:28;22.10;64.50
17080;DHT22;8655;57.106;-2.088;2022-07-29T13:11:31;22.10;64.50
17080;DHT22;8655;57.106;-2.088;2022-07-29T13:13:57;22.10;64.60
17080;DHT22;8655;57.106;-2.088;2022-07-29T13:16:22;22.10;64.50
17080;DHT22;8655;57.106;-2.088;2022-07-29T13:18:48;22.10;64.60
17080;DHT22;8655;57.106;-2.088;2022-07-29T13:21:15;22.10;64.60
17080;DHT22;8655;57.106;-2.088;2022-07-29T13:23:41;22.20;64.70
17080;DHT22;8655;57.106;-2.088;2022-07-29T13:26:08;22.20;64.70
17080;DHT22;8655;57.106;-2.088;2022-07-29T13:28:35;22.20;64.70
17080;DHT22;8655;57.106;-2.088;2022-07-29T13:31:01;22.20;64.80
17080;DHT22;8655;57.106;-2.088;2022-07-29T13:33:27;22.20;64.80
17080;DHT22;8655;57.106;-2.088;2022-07-29T13:35:53;22.20;64.80
17080;DHT22;8655;57.106;-2.088;2022-07-29T13:38:18;22.20;65.50
17080;DHT22;8655;57.106;-2.088;2022-07-29T13:40:44;22.20;64.80
17080;DHT22;8655;57.106;-2.088;2022-07-29T13:43:11;22.20;64.80
17080;DHT22;8655;57.106;-2.088;2022-07-29T13:45:37;22.30;64.90
17080;DHT22;8655;57.106;-2.088;2022-07-29T13:48:03;22.20;64.80
17080;DHT22;8655;57.106;-2.088;2022-07-29T13:50:29;22.20;64.90
17080;DHT22;8655;57.106;-2.088;2022-07-29T13:52:54;22.30;65.00
17080;DHT22;8655;57.106;-2.088;2022-07-29T13:55:20;22.30;65.00
17080;DHT22;8655;57.106;-2.088;2022-07-29T13:57:46;22.30;65.00
17080;DHT22;8655;57.106;-2.088;2022-07-29T14:00:13;22.30;65.00
17080;DHT22;8655;57.106;-2.088;2022-07-29T14:02:40;22.30;65.00
17080;DHT22;8655;57.106;-2.088;2022-07-29T14:05:07;22.30;65.00
17080;DHT22;8655;57.106;-2.088;2022-07-29T14:07:33;22.30;65.00
17080;DHT22;8655;57.106;-2.088;2022-07-29T14:09:59;22.30;65.00
17080;DHT22;8655;57.106;-2.088;2022-07-29T14:12:24;22.30;65.00
17080;DHT22;8655;57.106;-2.088;2022-07-29T14:14:50;22.30;65.00
17080;DHT22;8655;57.106;-2.088;2022-07-29T14:17:16;22.30;65.00
17080;DHT22;8655;57.106;-2.088;2022-07-29T14:19:42;22.30;65.10
17080;DHT22;8655;57.106;-2.088;2022-07-29T14:22:08;22.30;65.10
17080;DHT22;8655;57.106;-2.088;2022-07-29T14:24:35;22.30;65.10
17080;DHT22;8655;57.106;-2.088;2022-07-29T14:27:01;22.30;65.10
17080;DHT22;8655;57.106;-2.088;2022-07-29T14:29:27;22.30;65.10
17080;DHT22;8655;57.106;-2.088;2022-07-29T14:31:52;22.30;65.10
17080;DHT22;8655;57.106;-2.088;2022-07-29T14:34:18;22.40;65.10
17080;DHT22;8655;57.106;-2.088;2022-07-29T14:36:44;22.40;65.10
17080;DHT22;8655;57.106;-2.088;2022-07-29T14:39:10;22.40;65.20
17080;DHT22;8655;57.106;-2.088;2022-07-29T14:41:36;22.40;65.20
17080;DHT22;8655;57.106;-2.088;2022-07-29T14:44:02;22.40;65.20
17080;DHT22;8655;57.106;-2.088;2022-07-29T14:46:28;22.40;65.20
17080;DHT22;8655;57.106;-2.088;2022-07-29T14:48:54;22.40;65.20
17080;DHT22;8655;57.106;-2.088;2022-07-29T14:51:20;22.40;65.20
17080;DHT22;8655;57.106;-2.088;2022-07-29T14:53:46;22.40;65.20
17080;DHT22;8655;57.106;-2.088;2022-07-29T14:56:11;22.40;65.30
17080;DHT22;8655;57.106;-2.088;2022-07-29T14:58:37;22.40;65.20
17080;DHT22;8655;57.106;-2.088;2022-07-29T15:01:03;22.40;65.30
17080;DHT22;8655;57.106;-2.088;2022-07-29T15:03:28;22.40;65.30
17080;DHT22;8655;57.106;-2.088;2022-07-29T15:05:55;22.40;65.30
17080;DHT22;8655;57.106;-2.088;2022-07-29T15:08:20;22.50;65.40
17080;DHT22;8655;57.106;-2.088;2022-07-29T15:10:46;22.40;65.30
17080;DHT22;8655;57.106;-2.088;2022-07-29T15:13:12;22.40;65.30
17080;DHT22;8655;57.106;-2.088;2022-07-29T15:15:38;22.50;65.40
17080;DHT22;8655;57.106;-2.088;2022-07-29T15:18:05;22.50;65.40
17080;DHT22;8655;57.106;-2.088;2022-07-29T15:20:31;22.50;65.40
17080;DHT22;8655;57.106;-2.088;2022-07-29T15:22:56;22.50;65.40
17080;DHT22;8655;57.106;-2.088;2022-07-29T15:25:23;22.50;65.40
17080;DHT22;8655;57.106;-2.088;2022-07-29T15:27:49;22.50;65.40
17080;DHT22;8655;57.106;-2.088;2022-07-29T15:30:15;22.50;65.40
17080;DHT22;8655;57.106;-2.088;2022-07-29T15:32:43;22.50;65.40
17080;DHT22;8655;57.106;-2.088;2022-07-29T15:35:09;22.50;65.40
17080;DHT22;8655;57.106;-2.088;2022-07-29T15:37:38;22.50;65.40
17080;DHT22;8655;57.106;-2.088;2022-07-29T15:40:05;22.50;65.40
17080;DHT22;8655;57.106;-2.088;2022-07-29T15:42:31;22.50;65.40
17080;DHT22;8655;57.106;-2.088;2022-07-29T15:44:57;22.50;65.40
17080;DHT22;8655;57.106;-2.088;2022-07-29T15:47:22;22.50;65.40
17080;DHT22;8655;57.106;-2.088;2022-07-29T15:49:48;22.50;65.40
17080;DHT22;8655;57.106;-2.088;2022-07-29T15:52:18;22.50;65.40
17080;DHT22;8655;57.106;-2.088;2022-07-29T15:54:44;22.50;65.40
17080;DHT22;8655;57.106;-2.088;2022-07-29T15:57:10;22.50;65.40
17080;DHT22;8655;57.106;-2.088;2022-07-29T15:59:36;22.60;65.50
17080;DHT22;8655;57.106;-2.088;2022-07-29T16:02:02;22.60;65.50
17080;DHT22;8655;57.106;-2.088;2022-07-29T16:04:28;22.50;65.40
17080;DHT22;8655;57.106;-2.088;2022-07-29T16:06:54;22.60;65.50
17080;DHT22;8655;57.106;-2.088;2022-07-29T16:09:20;22.50;65.30
17080;DHT22;8655;57.106;-2.088;2022-07-29T16:11:46;22.60;65.50
17080;DHT22;8655;57.106;-2.088;2022-07-29T16:14:16;22.60;65.50
17080;DHT22;8655;57.106;-2.088;2022-07-29T16:16:42;22.60;65.50
17080;DHT22;8655;57.106;-2.088;2022-07-29T16:19:08;22.60;65.40
17080;DHT22;8655;57.106;-2.088;2022-07-29T16:21:35;22.60;65.50
17080;DHT22;8655;57.106;-2.088;2022-07-29T16:24:01;22.60;65.40
17080;DHT22;8655;57.106;-2.088;2022-07-29T16:26:27;22.60;65.50
17080;DHT22;8655;57.106;-2.088;2022-07-29T16:28:53;22.60;65.50
17080;DHT22;8655;57.106;-2.088;2022-07-29T16:31:19;22.60;65.40
17080;DHT22;8655;57.106;-2.088;2022-07-29T16:33:54;22.60;65.40
17080;DHT22;8655;57.106;-2.088;2022-07-29T16:36:20;22.60;65.40
17080;DHT22;8655;57.106;-2.088;2022-07-29T16:38:47;22.60;65.40
17080;DHT22;8655;57.106;-2.088;2022-07-29T16:41:13;22.60;65.40